Time,TemperatureF,DewpointF,PressureIn,WindDirection,WindDirectionDegrees,WindSpeedMPH,WindSpeedGustMPH,Humidity,HourlyPrecipIn,Conditions,Clouds,dailyrainin,SoftwareType,DateUTC
2013-04-21 00:01:00,47.0,43.0,30.34,NE,38,1.0,6.0,87,0.00,,,0.01,,2013-04-21 07:01:00,
2013-04-21 00:11:00,47.0,43.0,30.34,NE,38,1.0,6.0,87,0.00,,,0.01,,2013-04-21 07:11:00,
2013-04-21 00:21:00,47.0,43.0,30.34,NE,40,3.0,8.0,86,0.00,,,0.01,,2013-04-21 07:21:00,
2013-04-21 00:31:00,47.0,43.0,30.34,ENE,60,2.0,5.0,86,0.00,,,0.01,,2013-04-21 07:31:00,
2013-04-21 00:41:00,47.0,43.0,30.34,ENE,60,2.0,5.0,86,0.00,,,0.01,,2013-04-21 07:41:00,
2013-04-21 00:52:00,47.0,43.0,30.33,NE,39,3.0,7.0,86,0.00,,,0.01,,2013-04-21 07:52:00,
2013-04-21 01:01:00,47.0,43.0,30.34,NE,47,1.0,7.0,86,0.00,,,0.01,,2013-04-21 08:01:00,
2013-04-21 01:11:00,47.0,43.0,30.34,NE,47,1.0,7.0,86,0.00,,,0.01,,2013-04-21 08:11:00,
2013-04-21 01:21:00,47.0,43.0,30.34,NNE,29,1.0,5.0,86,0.00,,,0.01,,2013-04-21 08:21:00,
2013-04-21 01:32:00,47.0,43.0,30.34,NE,44,2.0,5.0,86,0.00,,,0.01,,2013-04-21 08:32:00,
2013-04-21 01:41:00,47.0,43.0,30.34,NE,44,2.0,5.0,86,0.00,,,0.01,,2013-04-21 08:41:00,
2013-04-21 01:52:00,47.0,43.0,30.34,ENE,66,2.0,5.0,86,0.00,,,0.01,,2013-04-21 08:52:00,
2013-04-21 02:01:00,47.0,43.0,30.34,NNE,26,2.0,5.0,85,0.00,,,0.01,,2013-04-21 09:01:00,
2013-04-21 02:11:00,47.0,43.0,30.34,NNE,26,2.0,5.0,85,0.00,,,0.01,,2013-04-21 09:11:00,
2013-04-21 02:21:00,47.0,43.0,30.33,NE,46,3.0,5.0,86,0.00,,,0.01,,2013-04-21 09:21:00,
2013-04-21 02:32:00,47.0,43.0,30.33,NNE,26,0.0,5.0,86,0.00,,,0.01,,2013-04-21 09:32:00,
2013-04-21 02:42:00,47.0,43.0,30.33,NNE,26,0.0,5.0,86,0.00,,,0.01,,2013-04-21 09:42:00,
2013-04-21 02:52:00,47.0,43.0,30.34,NNE,17,3.0,7.0,86,0.00,,,0.01,,2013-04-21 09:52:00,
2013-04-21 03:02:00,47.0,43.0,30.34,NE,53,4.0,7.0,86,0.00,,,0.01,,2013-04-21 10:02:00,
2013-04-21 03:12:00,47.0,43.0,30.34,NE,53,4.0,7.0,86,0.00,,,0.01,,2013-04-21 10:12:00,
2013-04-21 03:22:00,47.0,43.0,30.33,ENE,67,1.0,7.0,86,0.00,,,0.01,,2013-04-21 10:22:00,
2013-04-21 03:32:00,47.0,43.0,30.32,East,79,1.0,4.0,86,0.00,,,0.01,,2013-04-21 10:32:00,
2013-04-21 03:42:00,47.0,43.0,30.32,East,79,1.0,4.0,86,0.00,,,0.01,,2013-04-21 10:42:00,
2013-04-21 03:52:00,47.0,43.0,30.32,ENE,63,2.0,5.0,86,0.00,,,0.01,,2013-04-21 10:52:00,
2013-04-21 04:02:00,47.0,43.0,30.32,NE,45,1.0,7.0,86,0.00,,,0.01,,2013-04-21 11:02:00,
2013-04-21 04:11:00,47.0,43.0,30.32,NE,45,1.0,7.0,86,0.00,,,0.01,,2013-04-21 11:11:00,
2013-04-21 04:22:00,47.0,43.0,30.31,ENE,65,2.0,5.0,86,0.00,,,0.01,,2013-04-21 11:22:00,
2013-04-21 04:33:00,47.0,43.0,30.31,NE,49,2.0,7.0,86,0.00,,,0.00,,2013-04-21 11:33:00,
2013-04-21 04:42:00,47.0,43.0,30.31,NE,49,2.0,7.0,86,0.00,,,0.00,,2013-04-21 11:42:00,
2013-04-21 04:52:00,47.0,43.0,30.32,NE,48,2.0,4.0,86,0.00,,,0.00,,2013-04-21 11:52:00,
2013-04-21 05:02:00,47.0,43.0,30.32,East,85,0.0,3.0,86,0.00,,,0.00,,2013-04-21 12:02:00,
2013-04-21 05:12:00,47.0,43.0,30.32,East,85,0.0,3.0,86,0.00,,,0.00,,2013-04-21 12:12:00,
2013-04-21 05:22:00,47.0,43.0,30.32,ENE,70,2.0,6.0,86,0.00,,,0.00,,2013-04-21 12:22:00,
2013-04-21 05:31:00,47.0,43.0,30.33,ENE,70,0.0,2.0,85,0.00,,,0.00,,2013-04-21 12:31:00,
2013-04-21 05:42:00,47.0,43.0,30.33,ENE,70,0.0,2.0,85,0.00,,,0.00,,2013-04-21 12:42:00,
2013-04-21 05:52:00,47.0,43.0,30.32,ENE,77,1.0,4.0,85,0.00,,,0.00,,2013-04-21 12:52:00,
2013-04-21 06:01:00,47.0,43.0,30.32,East,81,0.0,3.0,85,0.00,,,0.00,,2013-04-21 13:01:00,
2013-04-21 06:11:00,47.0,43.0,30.32,East,81,0.0,3.0,85,0.00,,,0.00,,2013-04-21 13:11:00,
2013-04-21 06:21:00,47.0,43.0,30.31,East,81,0.0,3.0,85,0.00,,,0.00,,2013-04-21 13:21:00,
2013-04-21 06:32:00,47.0,43.0,30.31,East,81,0.0,3.0,85,0.00,,,0.00,,2013-04-21 13:32:00,
2013-04-21 06:42:00,47.0,43.0,30.31,East,81,0.0,3.0,85,0.00,,,0.00,,2013-04-21 13:42:00,
2013-04-21 06:52:00,47.0,43.0,30.32,East,100,1.0,4.0,86,0.00,,,0.00,,2013-04-21 13:52:00,
2013-04-21 07:01:00,47.0,43.0,30.32,East,100,0.0,4.0,86,0.00,,,0.00,,2013-04-21 14:01:00,
2013-04-21 07:11:00,47.0,43.0,30.32,East,100,0.0,4.0,86,0.00,,,0.00,,2013-04-21 14:11:00,
2013-04-21 07:21:00,47.0,43.0,30.32,ESE,105,2.0,4.0,87,0.00,,,0.00,,2013-04-21 14:21:00,
2013-04-21 07:31:00,47.0,43.0,30.32,ESE,105,1.0,4.0,87,0.00,,,0.00,,2013-04-21 14:31:00,
2013-04-21 07:42:00,47.0,43.0,30.32,ESE,105,1.0,4.0,87,0.00,,,0.00,,2013-04-21 14:42:00,
2013-04-21 07:52:00,47.0,43.0,30.32,ESE,119,3.0,6.0,87,0.00,,,0.00,,2013-04-21 14:52:00,
2013-04-21 08:01:00,48.0,44.0,30.32,ESE,103,2.0,6.0,86,0.00,,,0.00,,2013-04-21 15:01:00,
2013-04-21 08:11:00,48.0,44.0,30.32,ESE,103,2.0,6.0,86,0.00,,,0.00,,2013-04-21 15:11:00,
2013-04-21 08:22:00,48.0,44.0,30.32,ESE,105,3.0,7.0,86,0.00,,,0.00,,2013-04-21 15:22:00,
2013-04-21 08:33:00,48.0,44.0,30.33,ESE,119,2.0,7.0,85,0.00,,,0.00,,2013-04-21 15:33:00,
2013-04-21 08:42:00,48.0,44.0,30.33,ESE,119,2.0,7.0,85,0.00,,,0.00,,2013-04-21 15:42:00,
2013-04-21 08:53:00,48.0,43.0,30.33,ESE,110,2.0,4.0,84,0.00,,,0.00,,2013-04-21 15:53:00,
2013-04-21 09:03:00,49.0,45.0,30.33,NNW,339,6.0,8.0,85,0.00,,,0.00,,2013-04-21 16:03:00,
2013-04-21 09:12:00,49.0,45.0,30.33,NNW,339,6.0,8.0,85,0.00,,,0.00,,2013-04-21 16:12:00,
2013-04-21 09:22:00,48.0,44.0,30.33,NW,326,2.0,6.0,87,0.00,,,0.00,,2013-04-21 16:22:00,
2013-04-21 09:32:00,48.0,45.0,30.33,NW,312,3.0,6.0,88,0.00,,,0.00,,2013-04-21 16:32:00,
2013-04-21 09:42:00,48.0,45.0,30.33,NW,312,3.0,6.0,88,0.00,,,0.00,,2013-04-21 16:42:00,
2013-04-21 09:52:00,48.0,45.0,30.32,NW,316,0.0,0.0,90,0.00,,,0.00,,2013-04-21 16:52:00,
2013-04-21 10:01:00,48.0,45.0,30.32,NW,316,0.0,3.0,89,0.00,,,0.00,,2013-04-21 17:01:00,
2013-04-21 10:12:00,48.0,45.0,30.32,NW,316,0.0,3.0,89,0.00,,,0.00,,2013-04-21 17:12:00,
2013-04-21 10:22:00,48.0,45.0,30.32,NNW,341,0.0,3.0,89,0.00,,,0.00,,2013-04-21 17:22:00,
2013-04-21 10:32:00,49.0,46.0,30.33,NNW,341,0.0,1.0,89,0.00,,,0.00,,2013-04-21 17:32:00,
2013-04-21 10:42:00,49.0,46.0,30.33,NNW,341,0.0,1.0,89,0.00,,,0.00,,2013-04-21 17:42:00,
2013-04-21 10:52:00,50.0,47.0,30.33,WNW,300,0.0,0.0,88,0.00,,,0.00,,2013-04-21 17:52:00,
2013-04-21 11:02:00,50.0,46.0,30.33,SW,221,2.0,4.0,86,0.00,,,0.00,,2013-04-21 18:02:00,
2013-04-21 11:11:00,50.0,46.0,30.33,SW,221,2.0,4.0,86,0.00,,,0.00,,2013-04-21 18:11:00,
2013-04-21 11:21:00,50.0,46.0,30.33,SSW,206,2.0,4.0,85,0.00,,,0.00,,2013-04-21 18:21:00,
2013-04-21 11:32:00,51.0,47.0,30.33,SW,214,2.0,3.0,85,0.00,,,0.00,,2013-04-21 18:32:00,
2013-04-21 11:42:00,51.0,47.0,30.33,SW,214,2.0,3.0,85,0.00,,,0.00,,2013-04-21 18:42:00,
2013-04-21 11:52:00,52.0,48.0,30.33,SW,228,2.0,4.0,85,0.00,,,0.00,,2013-04-21 18:52:00,
2013-04-21 12:02:00,52.0,47.0,30.32,SW,225,2.0,4.0,83,0.00,,,0.00,,2013-04-21 19:02:00,
2013-04-21 12:11:00,52.0,47.0,30.32,SW,225,2.0,4.0,83,0.00,,,0.00,,2013-04-21 19:11:00,
2013-04-21 12:21:00,52.0,47.0,30.32,SW,228,4.0,6.0,84,0.00,,,0.00,,2013-04-21 19:21:00,
2013-04-21 12:31:00,52.0,47.0,30.32,SW,223,4.0,6.0,84,0.00,,,0.00,,2013-04-21 19:31:00,
2013-04-21 12:42:00,52.0,47.0,30.32,SW,223,4.0,6.0,84,0.00,,,0.00,,2013-04-21 19:42:00,
2013-04-21 12:52:00,51.0,46.0,30.32,SW,225,4.0,6.0,83,0.00,,,0.00,,2013-04-21 19:52:00,
2013-04-21 13:01:00,52.0,48.0,30.32,SW,226,4.0,6.0,85,0.00,,,0.00,,2013-04-21 20:01:00,
2013-04-21 13:11:00,52.0,48.0,30.32,SW,226,4.0,6.0,85,0.00,,,0.00,,2013-04-21 20:11:00,
2013-04-21 13:22:00,51.0,47.0,30.32,SW,230,5.0,7.0,85,0.00,,,0.00,,2013-04-21 20:22:00,
2013-04-21 13:31:00,52.0,48.0,30.32,WSW,243,4.0,7.0,85,0.00,,,0.00,,2013-04-21 20:31:00,
2013-04-21 13:41:00,52.0,48.0,30.32,WSW,243,4.0,7.0,85,0.00,,,0.00,,2013-04-21 20:41:00,
2013-04-21 13:52:00,52.0,48.0,30.31,WSW,239,3.0,5.0,85,0.00,,,0.00,,2013-04-21 20:52:00,
2013-04-21 14:01:00,53.0,49.0,30.31,WSW,237,2.0,6.0,86,0.00,,,0.00,,2013-04-21 21:01:00,
2013-04-21 14:12:00,53.0,49.0,30.31,WSW,237,2.0,6.0,86,0.00,,,0.00,,2013-04-21 21:12:00,
2013-04-21 14:21:00,52.0,48.0,30.31,WSW,240,4.0,7.0,85,0.00,,,0.00,,2013-04-21 21:21:00,
2013-04-21 14:32:00,52.0,48.0,30.32,WNW,283,4.0,6.0,85,0.00,,,0.00,,2013-04-21 21:32:00,
2013-04-21 14:43:00,52.0,48.0,30.32,WNW,283,4.0,6.0,85,0.00,,,0.00,,2013-04-21 21:43:00,
2013-04-21 14:53:00,51.0,47.0,30.32,WNW,294,5.0,6.0,87,0.00,,,0.00,,2013-04-21 21:53:00,
2013-04-21 15:02:00,50.0,47.0,30.32,NW,314,4.0,6.0,88,0.00,,,0.00,,2013-04-21 22:02:00,
2013-04-21 15:12:00,50.0,47.0,30.32,NW,314,4.0,6.0,88,0.00,,,0.00,,2013-04-21 22:12:00,
2013-04-21 15:22:00,49.0,46.0,30.32,WNW,302,3.0,5.0,89,0.00,,,0.00,,2013-04-21 22:22:00,
2013-04-21 15:32:00,49.0,46.0,30.32,NW,310,3.0,6.0,90,0.00,,,0.00,,2013-04-21 22:32:00,
2013-04-21 15:43:00,49.0,46.0,30.32,NW,310,3.0,6.0,90,0.00,,,0.00,,2013-04-21 22:43:00,
2013-04-21 15:52:00,49.0,46.0,30.32,NNW,333,3.0,5.0,91,0.00,,,0.00,,2013-04-21 22:52:00,
2013-04-21 16:02:00,49.0,47.0,30.31,NNW,346,3.0,5.0,92,0.00,,,0.00,,2013-04-21 23:02:00,
2013-04-21 16:12:00,49.0,47.0,30.31,NNW,346,3.0,5.0,92,0.00,,,0.00,,2013-04-21 23:12:00,
2013-04-21 16:22:00,49.0,47.0,30.31,NNW,327,1.0,3.0,92,0.00,,,0.00,,2013-04-21 23:22:00,
2013-04-21 16:32:00,49.0,46.0,30.31,NNW,336,2.0,5.0,91,0.00,,,0.00,,2013-04-21 23:32:00,
2013-04-21 16:42:00,49.0,46.0,30.31,NNW,336,2.0,5.0,91,0.00,,,0.00,,2013-04-21 23:42:00,
2013-04-21 16:52:00,49.0,46.0,30.31,NW,322,2.0,4.0,91,0.00,,,0.00,,2013-04-21 23:52:00,
2013-04-21 17:01:00,50.0,47.0,30.31,NNW,341,3.0,5.0,90,0.00,,,0.00,,2013-04-22 00:01:00,
2013-04-21 17:11:00,50.0,47.0,30.31,NNW,341,3.0,5.0,90,0.00,,,0.00,,2013-04-22 00:11:00,
2013-04-21 17:21:00,50.0,47.0,30.30,North,352,3.0,5.0,89,0.00,,,0.00,,2013-04-22 00:21:00,
2013-04-21 17:31:00,50.0,47.0,30.30,NNW,336,4.0,7.0,89,0.00,,,0.00,,2013-04-22 00:31:00,
2013-04-21 17:42:00,50.0,47.0,30.30,NNW,336,4.0,7.0,89,0.00,,,0.00,,2013-04-22 00:42:00,
2013-04-21 17:52:00,50.0,47.0,30.29,North,350,3.0,5.0,88,0.00,,,0.00,,2013-04-22 00:52:00,
2013-04-21 18:01:00,50.0,47.0,30.29,NNW,337,4.0,7.0,88,0.00,,,0.00,,2013-04-22 01:01:00,
2013-04-21 18:11:00,50.0,47.0,30.29,NNW,337,4.0,7.0,88,0.00,,,0.00,,2013-04-22 01:11:00,
2013-04-21 18:21:00,50.0,47.0,30.29,NNW,333,7.0,8.0,88,0.00,,,0.00,,2013-04-22 01:21:00,
2013-04-21 18:32:00,50.0,46.0,30.29,NNW,333,6.0,7.0,87,0.00,,,0.00,,2013-04-22 01:32:00,
2013-04-21 18:41:00,50.0,46.0,30.29,NNW,333,6.0,7.0,87,0.00,,,0.00,,2013-04-22 01:41:00,
2013-04-21 18:52:00,50.0,46.0,30.29,NNW,333,6.0,7.0,87,0.00,,,0.00,,2013-04-22 01:52:00,
2013-04-21 19:01:00,51.0,47.0,30.29,North,352,5.0,7.0,87,0.00,,,0.00,,2013-04-22 02:01:00,
2013-04-21 19:11:00,51.0,47.0,30.29,North,352,5.0,7.0,87,0.00,,,0.00,,2013-04-22 02:11:00,
2013-04-21 19:21:00,51.0,47.0,30.29,North,354,7.0,8.0,87,0.00,,,0.00,,2013-04-22 02:21:00,
2013-04-21 19:31:00,51.0,47.0,30.29,North,8,7.0,9.0,87,0.00,,,0.00,,2013-04-22 02:31:00,
2013-04-21 19:41:00,51.0,47.0,30.29,North,8,7.0,9.0,87,0.00,,,0.00,,2013-04-22 02:41:00,
2013-04-21 19:52:00,51.0,47.0,30.29,North,354,7.0,9.0,87,0.00,,,0.00,,2013-04-22 02:52:00,
2013-04-21 20:01:00,50.0,47.0,30.29,North,9,8.0,11.0,88,0.00,,,0.00,,2013-04-22 03:01:00,
2013-04-21 20:11:00,50.0,47.0,30.29,North,9,8.0,11.0,88,0.00,,,0.00,,2013-04-22 03:11:00,
2013-04-21 20:22:00,50.0,47.0,30.29,North,360,9.0,13.0,88,0.00,,,0.00,,2013-04-22 03:22:00,
2013-04-21 20:33:00,50.0,47.0,30.29,North,359,11.0,14.0,88,0.00,,,0.00,,2013-04-22 03:33:00,
2013-04-21 20:42:00,50.0,47.0,30.29,North,359,11.0,14.0,88,0.00,,,0.00,,2013-04-22 03:42:00,
2013-04-21 20:52:00,49.0,46.0,30.29,North,8,10.0,14.0,89,0.00,,,0.00,,2013-04-22 03:52:00,
2013-04-21 21:02:00,49.0,46.0,30.29,North,8,12.0,14.0,89,0.00,,,0.00,,2013-04-22 04:02:00,
2013-04-21 21:12:00,49.0,46.0,30.29,North,8,12.0,14.0,89,0.00,,,0.00,,2013-04-22 04:12:00,
2013-04-21 21:23:00,49.0,46.0,30.30,North,350,11.0,16.0,90,0.00,,,0.00,,2013-04-22 04:23:00,
2013-04-21 21:32:00,49.0,46.0,30.30,NNE,17,7.0,10.0,89,0.00,,,0.00,,2013-04-22 04:32:00,
2013-04-21 21:43:00,49.0,46.0,30.30,NNE,17,7.0,10.0,89,0.00,,,0.00,,2013-04-22 04:43:00,
2013-04-21 21:52:00,49.0,46.0,30.30,NNE,13,4.0,8.0,90,0.00,,,0.00,,2013-04-22 04:52:00,
2013-04-21 22:02:00,49.0,46.0,30.31,North,2,13.0,16.0,91,0.00,,,0.00,,2013-04-22 05:02:00,
2013-04-21 22:11:00,49.0,46.0,30.31,North,2,13.0,16.0,91,0.00,,,0.00,,2013-04-22 05:11:00,
2013-04-21 22:22:00,49.0,46.0,30.31,NNE,15,7.0,10.0,90,0.00,,,0.00,,2013-04-22 05:22:00,
2013-04-21 22:32:00,48.0,45.0,30.31,NNE,33,9.0,13.0,90,0.00,,,0.00,,2013-04-22 05:32:00,
2013-04-21 22:42:00,48.0,45.0,30.31,NNE,33,9.0,13.0,90,0.00,,,0.00,,2013-04-22 05:42:00,
2013-04-21 22:52:00,48.0,45.0,30.32,ENE,58,3.0,9.0,90,0.00,,,0.00,,2013-04-22 05:52:00,
2013-04-21 23:02:00,48.0,45.0,30.32,North,9,5.0,8.0,91,0.00,,,0.00,,2013-04-22 06:02:00,
2013-04-21 23:11:00,48.0,45.0,30.32,North,9,5.0,8.0,91,0.00,,,0.00,,2013-04-22 06:11:00,
2013-04-21 23:21:00,48.0,45.0,30.32,NNE,33,6.0,10.0,91,0.00,,,0.00,,2013-04-22 06:21:00,
2013-04-21 23:32:00,48.0,45.0,30.32,NE,46,10.0,13.0,91,0.00,,,0.00,,2013-04-22 06:32:00,
2013-04-21 23:41:00,48.0,45.0,30.32,NE,46,10.0,13.0,91,0.00,,,0.00,,2013-04-22 06:41:00,
2013-04-21 23:52:00,47.0,45.0,30.32,NE,38,6.0,10.0,91,0.00,,,0.00,,2013-04-22 06:52:00,